Terminal Aerodrome Forecast
Issued by NWS

Home | Current Version | Previous Version | Text Only | Print | Product List | Glossary On
Versions: 1 2 3 4 5 6 7 8 9 10 11 12 13 14 15 16 17
000
FTUS43 KICT 270522
TAFRSL
TAF
KRSL 270522Z 2706/2806 VRB04KT P6SM SKC
     FM271100 14007KT P6SM SCT100 BKN250
     FM271600 13012KT P6SM OVC090
     FM272000 12016G23KT P6SM VCSH SCT035 OVC080
     FM280000 10013KT 5SM SHRA OVC020=

USA.gov is the U.S. government's official web portal to all federal, state and local government web resources and services.